Lucerne, California
Current Conditions -  °F | °C
As of 7:34 AM on Thursday 23 Oct 2014 (Local Time) from KUKI Reporting Station
Overcast Overcast  
Wind Chill: 58°   Ceiling: 2900
Heat Index: 58°   Visibility: 10mi
Dew Point: 54°   Wind: 0mph
Humidity: 87%   Direction: NA
Pressure: 30.04"   Gusts: NA
Location:  39.09°N, 122.8°W
Report Text: KUKI 231434Z AUTO 00000KT 10SM BKN029 OVC035 14/12 A3004 RMK AO2 T01440122
Loading
Personal Weather Stations






























Interactive Weather Map
Tropical Storm Tracking
New forecast layout! Learn more

10-Day Weather Forecast

Advertisements
Track Severe Weather on mobile